sensor_id;sensor_type;location;lat;lon;timestamp;pressure;altitude;pressure_sealevel;temperature;humidity
37420;BME280;47344;52.374;4.816;2023-02-21T02:14:42;101927.0;;;9.93;100.0
37420;BME280;47344;52.374;4.816;2023-02-21T02:16:33;101925.0;;;9.91;100.0
37420;BME280;47344;52.374;4.816;2023-02-21T02:19:29;101928.0;;;9.89;100.0
37420;BME280;47344;52.374;4.816;2023-02-21T02:22:12;101926.0;;;9.84;100.0
37420;BME280;47344;52.374;4.816;2023-02-21T02:24:53;101924.0;;;9.86;100.0
37420;BME280;47344;52.374;4.816;2023-02-21T02:26:56;101920.0;;;9.92;100.0
37420;BME280;47344;52.374;4.816;2023-02-21T02:30:44;101920.0;;;10.03;100.0
37420;BME280;47344;52.374;4.816;2023-02-21T02:34:54;101917.0;;;10.08;100.0
37420;BME280;47344;52.374;4.816;2023-02-21T02:36:39;101920.0;;;9.98;100.0
37420;BME280;47344;52.374;4.816;2023-02-21T02:38:23;101913.0;;;10.06;100.0
37420;BME280;47344;52.374;4.816;2023-02-21T02:40:06;101915.0;;;9.9;100.0
37420;BME280;47344;52.374;4.816;2023-02-21T02:43:42;101914.0;;;9.89;100.0
37420;BME280;47344;52.374;4.816;2023-02-21T02:45:29;101912.0;;;9.81;100.0
37420;BME280;47344;52.374;4.816;2023-02-21T02:47:12;101916.0;;;9.82;100.0
37420;BME280;47344;52.374;4.816;2023-02-21T02:48:57;101912.0;;;9.71;100.0
37420;BME280;47344;52.374;4.816;2023-02-21T02:50:38;101917.0;;;9.72;100.0
37420;BME280;47344;52.374;4.816;2023-02-21T02:53:52;101911.0;;;9.76;100.0
37420;BME280;47344;52.374;4.816;2023-02-21T02:55:34;101920.0;;;9.77;100.0
37420;BME280;47344;52.374;4.816;2023-02-21T02:57:12;101916.0;;;9.89;100.0
37420;BME280;47344;52.374;4.816;2023-02-21T02:58:51;101916.0;;;9.9;100.0
37420;BME280;47344;52.374;4.816;2023-02-21T03:04:42;101916.0;;;10.06;100.0
37420;BME280;47344;52.374;4.816;2023-02-21T03:06:40;101918.0;;;9.97;100.0
37420;BME280;47344;52.374;4.816;2023-02-21T03:08:30;101920.0;;;9.9;100.0
37420;BME280;47344;52.374;4.816;2023-02-21T03:12:07;101918.0;;;9.85;100.0
37420;BME280;47344;52.374;4.816;2023-02-21T03:13:54;101920.0;;;9.83;100.0
37420;BME280;47344;52.374;4.816;2023-02-21T03:15:38;101921.0;;;10.0;100.0
37420;BME280;47344;52.374;4.816;2023-02-21T03:19:04;101920.0;;;9.91;100.0
37420;BME280;47344;52.374;4.816;2023-02-21T03:20:45;101910.0;;;9.89;100.0
37420;BME280;47344;52.374;4.816;2023-02-21T03:22:29;101909.0;;;9.96;100.0
37420;BME280;47344;52.374;4.816;2023-02-21T03:24:08;101905.0;;;9.96;100.0
37420;BME280;47344;52.374;4.816;2023-02-21T03:27:26;101905.0;;;9.81;100.0
37420;BME280;47344;52.374;4.816;2023-02-21T03:29:05;101898.0;;;9.86;100.0
37420;BME280;47344;52.374;4.816;2023-02-21T03:30:42;101906.0;;;9.9;100.0
37420;BME280;47344;52.374;4.816;2023-02-21T03:35:33;101905.0;;;9.97;100.0
37420;BME280;47344;52.374;4.816;2023-02-21T03:37:18;101895.0;;;9.93;100.0
37420;BME280;47344;52.374;4.816;2023-02-21T03:38:56;101888.0;;;9.91;100.0
37420;BME280;47344;52.374;4.816;2023-02-21T03:40:33;101886.0;;;9.89;100.0
37420;BME280;47344;52.374;4.816;2023-02-21T03:43:45;101887.0;;;9.89;100.0
37420;BME280;47344;52.374;4.816;2023-02-21T03:45:21;101885.0;;;9.88;100.0
37420;BME280;47344;52.374;4.816;2023-02-21T03:46:58;101882.0;;;9.81;100.0
37420;BME280;47344;52.374;4.816;2023-02-21T03:50:11;101886.0;;;9.83;100.0
37420;BME280;47344;52.374;4.816;2023-02-21T03:51:48;101888.0;;;10.02;100.0
37420;BME280;47344;52.374;4.816;2023-02-21T03:53:24;101887.0;;;9.89;100.0
37420;BME280;47344;52.374;4.816;2023-02-21T03:56:37;101889.0;;;9.89;100.0
37420;BME280;47344;52.374;4.816;2023-02-21T03:58:14;101891.0;;;9.91;100.0
37420;BME280;47344;52.374;4.816;2023-02-21T03:59:50;101893.0;;;9.94;100.0
37420;BME280;47344;52.374;4.816;2023-02-21T04:01:27;101891.0;;;9.92;100.0
37420;BME280;47344;52.374;4.816;2023-02-21T04:04:40;101893.0;;;9.99;100.0
37420;BME280;47344;52.374;4.816;2023-02-21T04:06:17;101889.0;;;9.96;100.0
37420;BME280;47344;52.374;4.816;2023-02-21T04:07:52;101896.0;;;9.99;100.0
37420;BME280;47344;52.374;4.816;2023-02-21T04:11:05;101894.0;;;9.91;100.0
37420;BME280;47344;52.374;4.816;2023-02-21T04:12:42;101894.0;;;9.8;100.0
37420;BME280;47344;52.374;4.816;2023-02-21T04:14:18;101891.0;;;9.82;100.0
37420;BME280;47344;52.374;4.816;2023-02-21T04:17:30;101891.0;;;9.91;100.0
37420;BME280;47344;52.374;4.816;2023-02-21T04:19:06;101893.0;;;9.99;100.0
37420;BME280;47344;52.374;4.816;2023-02-21T04:20:45;101891.0;;;10.0;100.0
37420;BME280;47344;52.374;4.816;2023-02-21T04:22:22;101900.0;;;10.1;100.0
37420;BME280;47344;52.374;4.816;2023-02-21T04:25:34;101901.0;;;10.02;100.0
37420;BME280;47344;52.374;4.816;2023-02-21T04:27:12;101906.0;;;10.07;100.0
37420;BME280;47344;52.374;4.816;2023-02-21T04:28:48;101902.0;;;9.98;100.0
37420;BME280;47344;52.374;4.816;2023-02-21T04:32:02;101905.0;;;9.98;100.0
37420;BME280;47344;52.374;4.816;2023-02-21T04:33:38;101906.0;;;10.06;100.0
37420;BME280;47344;52.374;4.816;2023-02-21T04:35:15;101910.0;;;10.05;100.0
37420;BME280;47344;52.374;4.816;2023-02-21T04:38:27;101905.0;;;10.06;100.0
37420;BME280;47344;52.374;4.816;2023-02-21T04:40:04;101912.0;;;10.13;100.0
37420;BME280;47344;52.374;4.816;2023-02-21T04:41:41;101905.0;;;10.14;100.0
37420;BME280;47344;52.374;4.816;2023-02-21T04:43:20;101905.0;;;10.19;100.0
37420;BME280;47344;52.374;4.816;2023-02-21T04:46:32;101906.0;;;10.15;100.0
37420;BME280;47344;52.374;4.816;2023-02-21T04:48:09;101906.0;;;10.14;100.0
37420;BME280;47344;52.374;4.816;2023-02-21T04:49:50;101911.0;;;10.14;100.0
37420;BME280;47344;52.374;4.816;2023-02-21T04:53:02;101912.0;;;10.19;100.0
37420;BME280;47344;52.374;4.816;2023-02-21T04:54:38;101908.0;;;10.19;100.0
37420;BME280;47344;52.374;4.816;2023-02-21T04:56:17;101906.0;;;10.18;100.0
37420;BME280;47344;52.374;4.816;2023-02-21T04:57:54;101897.0;;;10.16;100.0
37420;BME280;47344;52.374;4.816;2023-02-21T05:01:06;101893.0;;;10.1;100.0
37420;BME280;47344;52.374;4.816;2023-02-21T05:02:43;101890.0;;;9.98;100.0
37420;BME280;47344;52.374;4.816;2023-02-21T05:04:19;101894.0;;;10.11;100.0
37420;BME280;47344;52.374;4.816;2023-02-21T05:07:32;101903.0;;;10.14;100.0
37420;BME280;47344;52.374;4.816;2023-02-21T05:09:08;101906.0;;;10.11;100.0
37420;BME280;47344;52.374;4.816;2023-02-21T05:10:45;101907.0;;;9.98;100.0
37420;BME280;47344;52.374;4.816;2023-02-21T05:13:57;101897.0;;;9.89;100.0
37420;BME280;47344;52.374;4.816;2023-02-21T05:15:34;101898.0;;;9.98;100.0
37420;BME280;47344;52.374;4.816;2023-02-21T05:17:10;101896.0;;;9.89;100.0
37420;BME280;47344;52.374;4.816;2023-02-21T05:20:25;101898.0;;;9.99;100.0
37420;BME280;47344;52.374;4.816;2023-02-21T05:22:01;101898.0;;;10.05;100.0
37420;BME280;47344;52.374;4.816;2023-02-21T05:23:39;101897.0;;;9.86;100.0
37420;BME280;47344;52.374;4.816;2023-02-21T05:25:17;101902.0;;;9.92;100.0
37420;BME280;47344;52.374;4.816;2023-02-21T05:28:33;101900.0;;;9.98;100.0
37420;BME280;47344;52.374;4.816;2023-02-21T05:30:10;101899.0;;;10.06;100.0
37420;BME280;47344;52.374;4.816;2023-02-21T05:31:48;101899.0;;;10.01;100.0
37420;BME280;47344;52.374;4.816;2023-02-21T05:35:01;101895.0;;;9.98;100.0
37420;BME280;47344;52.374;4.816;2023-02-21T05:36:38;101898.0;;;9.94;100.0
37420;BME280;47344;52.374;4.816;2023-02-21T05:38:17;101897.0;;;9.98;100.0
37420;BME280;47344;52.374;4.816;2023-02-21T05:39:53;101903.0;;;10.08;100.0
37420;BME280;47344;52.374;4.816;2023-02-21T05:43:06;101905.0;;;10.17;100.0
37420;BME280;47344;52.374;4.816;2023-02-21T05:44:43;101905.0;;;10.22;100.0
37420;BME280;47344;52.374;4.816;2023-02-21T05:46:22;101911.0;;;10.17;100.0
37420;BME280;47344;52.374;4.816;2023-02-21T05:49:39;101909.0;;;10.09;100.0
37420;BME280;47344;52.374;4.816;2023-02-21T05:51:15;101911.0;;;10.13;100.0
37420;BME280;47344;52.374;4.816;2023-02-21T05:52:52;101915.0;;;10.14;100.0
37420;BME280;47344;52.374;4.816;2023-02-21T05:54:28;101914.0;;;10.19;100.0
37420;BME280;47344;52.374;4.816;2023-02-21T05:57:40;101911.0;;;10.07;100.0
37420;BME280;47344;52.374;4.816;2023-02-21T05:59:19;101913.0;;;10.19;100.0
37420;BME280;47344;52.374;4.816;2023-02-21T06:00:56;101909.0;;;10.25;100.0
37420;BME280;47344;52.374;4.816;2023-02-21T06:04:09;101908.0;;;10.18;100.0
37420;BME280;47344;52.374;4.816;2023-02-21T06:05:46;101903.0;;;10.0;100.0
37420;BME280;47344;52.374;4.816;2023-02-21T06:07:22;101903.0;;;10.11;100.0
37420;BME280;47344;52.374;4.816;2023-02-21T06:10:35;101905.0;;;10.06;100.0
37420;BME280;47344;52.374;4.816;2023-02-21T06:12:12;101909.0;;;10.05;100.0
37420;BME280;47344;52.374;4.816;2023-02-21T06:13:49;101909.0;;;10.06;100.0
37420;BME280;47344;52.374;4.816;2023-02-21T06:15:26;101907.0;;;10.02;100.0
37420;BME280;47344;52.374;4.816;2023-02-21T06:18:38;101902.0;;;10.02;100.0
37420;BME280;47344;52.374;4.816;2023-02-21T06:20:16;101907.0;;;9.99;100.0
37420;BME280;47344;52.374;4.816;2023-02-21T06:21:53;101907.0;;;9.98;100.0
37420;BME280;47344;52.374;4.816;2023-02-21T06:25:06;101909.0;;;9.97;100.0
37420;BME280;47344;52.374;4.816;2023-02-21T06:26:44;101907.0;;;10.0;100.0
37420;BME280;47344;52.374;4.816;2023-02-21T06:28:20;101908.0;;;10.06;100.0
37420;BME280;47344;52.374;4.816;2023-02-21T06:29:57;101917.0;;;10.14;100.0
37420;BME280;47344;52.374;4.816;2023-02-21T06:33:09;101911.0;;;10.17;100.0
37420;BME280;47344;52.374;4.816;2023-02-21T06:34:45;101912.0;;;10.17;100.0
37420;BME280;47344;52.374;4.816;2023-02-21T06:36:23;101910.0;;;10.26;100.0
37420;BME280;47344;52.374;4.816;2023-02-21T06:39:38;101910.0;;;10.07;100.0
37420;BME280;47344;52.374;4.816;2023-02-21T06:41:16;101906.0;;;9.96;100.0
37420;BME280;47344;52.374;4.816;2023-02-21T06:42:54;101910.0;;;10.14;100.0
37420;BME280;47344;52.374;4.816;2023-02-21T06:46:07;101910.0;;;10.05;100.0
37420;BME280;47344;52.374;4.816;2023-02-21T06:47:43;101911.0;;;10.14;100.0
37420;BME280;47344;52.374;4.816;2023-02-21T06:49:19;101917.0;;;10.14;100.0
37420;BME280;47344;52.374;4.816;2023-02-21T06:50:55;101912.0;;;10.07;100.0
37420;BME280;47344;52.374;4.816;2023-02-21T06:54:08;101920.0;;;10.03;100.0
37420;BME280;47344;52.374;4.816;2023-02-21T06:55:44;101923.0;;;10.15;100.0
37420;BME280;47344;52.374;4.816;2023-02-21T06:57:20;101921.0;;;10.13;100.0
37420;BME280;47344;52.374;4.816;2023-02-21T07:00:33;101915.0;;;10.02;100.0
37420;BME280;47344;52.374;4.816;2023-02-21T07:02:14;101915.0;;;10.03;100.0
37420;BME280;47344;52.374;4.816;2023-02-21T07:03:53;101916.0;;;10.03;100.0
37420;BME280;47344;52.374;4.816;2023-02-21T07:05:33;101921.0;;;10.06;100.0
37420;BME280;47344;52.374;4.816;2023-02-21T07:08:46;101925.0;;;10.11;100.0
37420;BME280;47344;52.374;4.816;2023-02-21T07:10:22;101922.0;;;10.27;100.0
37420;BME280;47344;52.374;4.816;2023-02-21T07:11:58;101921.0;;;10.22;100.0
37420;BME280;47344;52.374;4.816;2023-02-21T07:15:11;101919.0;;;10.27;100.0
37420;BME280;47344;52.374;4.816;2023-02-21T07:16:48;101920.0;;;10.19;100.0
37420;BME280;47344;52.374;4.816;2023-02-21T07:18:26;101919.0;;;10.11;100.0
37420;BME280;47344;52.374;4.816;2023-02-21T07:21:40;101917.0;;;10.14;100.0
37420;BME280;47344;52.374;4.816;2023-02-21T07:23:16;101917.0;;;10.07;100.0
37420;BME280;47344;52.374;4.816;2023-02-21T07:24:53;101918.0;;;10.01;100.0
37420;BME280;47344;52.374;4.816;2023-02-21T07:26:30;101917.0;;;10.06;100.0
37420;BME280;47344;52.374;4.816;2023-02-21T07:29:42;101919.0;;;10.1;100.0
37420;BME280;47344;52.374;4.816;2023-02-21T07:31:21;101918.0;;;10.23;100.0
37420;BME280;47344;52.374;4.816;2023-02-21T07:32:58;101920.0;;;10.24;100.0
37420;BME280;47344;52.374;4.816;2023-02-21T07:36:11;101923.0;;;10.16;100.0
37420;BME280;47344;52.374;4.816;2023-02-21T07:37:47;101921.0;;;10.17;100.0
37420;BME280;47344;52.374;4.816;2023-02-21T07:39:23;101923.0;;;10.13;100.0
37420;BME280;47344;52.374;4.816;2023-02-21T07:42:40;101923.0;;;10.14;100.0
37420;BME280;47344;52.374;4.816;2023-02-21T07:44:19;101919.0;;;10.03;100.0
37420;BME280;47344;52.374;4.816;2023-02-21T07:45:55;101918.0;;;9.98;100.0
37420;BME280;47344;52.374;4.816;2023-02-21T07:47:32;101917.0;;;9.92;100.0
37420;BME280;47344;52.374;4.816;2023-02-21T07:50:45;101921.0;;;10.05;100.0
37420;BME280;47344;52.374;4.816;2023-02-21T07:52:22;101917.0;;;10.02;100.0
37420;BME280;47344;52.374;4.816;2023-02-21T07:53:58;101922.0;;;10.14;100.0
37420;BME280;47344;52.374;4.816;2023-02-21T07:57:10;101920.0;;;10.06;100.0
37420;BME280;47344;52.374;4.816;2023-02-21T07:58:47;101920.0;;;10.14;100.0
37420;BME280;47344;52.374;4.816;2023-02-21T08:00:24;101920.0;;;10.0;100.0
37420;BME280;47344;52.374;4.816;2023-02-21T08:02:02;101922.0;;;10.17;100.0
37420;BME280;47344;52.374;4.816;2023-02-21T08:05:17;101925.0;;;10.15;100.0
37420;BME280;47344;52.374;4.816;2023-02-21T08:06:58;101932.0;;;10.08;100.0
37420;BME280;47344;52.374;4.816;2023-02-21T08:08:34;101930.0;;;10.1;100.0
37420;BME280;47344;52.374;4.816;2023-02-21T08:11:49;101932.0;;;10.15;100.0
37420;BME280;47344;52.374;4.816;2023-02-21T08:13:25;101934.0;;;10.14;100.0
37420;BME280;47344;52.374;4.816;2023-02-21T08:15:01;101933.0;;;10.22;100.0
37420;BME280;47344;52.374;4.816;2023-02-21T08:16:37;101930.0;;;10.11;100.0
37420;BME280;47344;52.374;4.816;2023-02-21T08:19:57;101931.0;;;10.16;100.0
37420;BME280;47344;52.374;4.816;2023-02-21T08:21:33;101930.0;;;10.23;100.0
37420;BME280;47344;52.374;4.816;2023-02-21T08:23:09;101932.0;;;10.3;100.0
37420;BME280;47344;52.374;4.816;2023-02-21T08:26:24;101930.0;;;10.35;100.0
37420;BME280;47344;52.374;4.816;2023-02-21T08:28:00;101930.0;;;10.41;100.0
37420;BME280;47344;52.374;4.816;2023-02-21T08:29:37;101931.0;;;10.55;100.0
37420;BME280;47344;52.374;4.816;2023-02-21T08:32:50;101928.0;;;10.57;100.0
37420;BME280;47344;52.374;4.816;2023-02-21T08:34:28;101926.0;;;10.59;100.0
37420;BME280;47344;52.374;4.816;2023-02-21T08:36:05;101922.0;;;10.49;100.0
37420;BME280;47344;52.374;4.816;2023-02-21T08:37:44;101925.0;;;10.39;100.0
37420;BME280;47344;52.374;4.816;2023-02-21T08:40:58;101930.0;;;10.4;100.0
37420;BME280;47344;52.374;4.816;2023-02-21T08:42:34;101921.0;;;10.36;100.0
37420;BME280;47344;52.374;4.816;2023-02-21T08:44:12;101921.0;;;10.25;100.0
37420;BME280;47344;52.374;4.816;2023-02-21T08:47:25;101925.0;;;10.44;100.0
37420;BME280;47344;52.374;4.816;2023-02-21T08:49:02;101924.0;;;10.39;100.0
37420;BME280;47344;52.374;4.816;2023-02-21T08:50:39;101924.0;;;10.5;100.0
37420;BME280;47344;52.374;4.816;2023-02-21T08:52:17;101923.0;;;10.44;100.0
37420;BME280;47344;52.374;4.816;2023-02-21T08:55:29;101923.0;;;10.34;100.0
37420;BME280;47344;52.374;4.816;2023-02-21T08:57:05;101921.0;;;10.45;100.0
37420;BME280;47344;52.374;4.816;2023-02-21T08:58:42;101923.0;;;10.42;100.0
37420;BME280;47344;52.374;4.816;2023-02-21T09:01:58;101919.0;;;10.58;100.0
37420;BME280;47344;52.374;4.816;2023-02-21T09:03:35;101920.0;;;10.57;100.0
37420;BME280;47344;52.374;4.816;2023-02-21T09:05:14;101917.0;;;10.59;100.0
37420;BME280;47344;52.374;4.816;2023-02-21T09:06:53;101922.0;;;10.67;100.0
37420;BME280;47344;52.374;4.816;2023-02-21T09:10:07;101919.0;;;10.72;100.0
37420;BME280;47344;52.374;4.816;2023-02-21T09:11:47;101925.0;;;10.84;100.0
37420;BME280;47344;52.374;4.816;2023-02-21T09:13:24;101920.0;;;10.75;100.0
37420;BME280;47344;52.374;4.816;2023-02-21T09:16:38;101919.0;;;10.77;100.0
37420;BME280;47344;52.374;4.816;2023-02-21T09:18:15;101916.0;;;10.71;100.0
37420;BME280;47344;52.374;4.816;2023-02-21T09:19:51;101919.0;;;10.69;100.0
37420;BME280;47344;52.374;4.816;2023-02-21T09:21:28;101918.0;;;10.83;100.0
37420;BME280;47344;52.374;4.816;2023-02-21T09:24:41;101921.0;;;10.78;100.0
37420;BME280;47344;52.374;4.816;2023-02-21T09:26:17;101918.0;;;10.75;100.0
37420;BME280;47344;52.374;4.816;2023-02-21T09:27:53;101911.0;;;10.74;100.0
37420;BME280;47344;52.374;4.816;2023-02-21T09:31:08;101913.0;;;10.6;100.0
37420;BME280;47344;52.374;4.816;2023-02-21T09:32:44;101907.0;;;10.58;100.0
37420;BME280;47344;52.374;4.816;2023-02-21T09:34:23;101901.0;;;10.66;100.0
37420;BME280;47344;52.374;4.816;2023-02-21T09:37:36;101905.0;;;10.7;100.0
37420;BME280;47344;52.374;4.816;2023-02-21T09:39:14;101905.0;;;10.74;100.0
37420;BME280;47344;52.374;4.816;2023-02-21T09:40:55;101902.0;;;10.74;100.0
37420;BME280;47344;52.374;4.816;2023-02-21T09:42:35;101900.0;;;10.87;100.0
37420;BME280;47344;52.374;4.816;2023-02-21T09:45:55;101900.0;;;10.91;100.0
37420;BME280;47344;52.374;4.816;2023-02-21T09:49:20;101895.0;;;10.82;100.0
37420;BME280;47344;52.374;4.816;2023-02-21T09:51:02;101893.0;;;10.79;100.0
37420;BME280;47344;52.374;4.816;2023-02-21T09:54:23;101893.0;;;10.89;100.0
37420;BME280;47344;52.374;4.816;2023-02-21T09:56:04;101890.0;;;10.96;100.0
37420;BME280;47344;52.374;4.816;2023-02-21T09:57:42;101887.0;;;11.0;100.0
37420;BME280;47344;52.374;4.816;2023-02-21T09:59:18;101894.0;;;11.01;100.0
37420;BME280;47344;52.374;4.816;2023-02-21T10:02:42;101895.0;;;11.02;100.0
37420;BME280;47344;52.374;4.816;2023-02-21T10:04:34;101893.0;;;11.01;100.0
37420;BME280;47344;52.374;4.816;2023-02-21T10:06:32;101888.0;;;10.94;100.0
37420;BME280;47344;52.374;4.816;2023-02-21T10:08:21;101890.0;;;10.88;100.0
37420;BME280;47344;52.374;4.816;2023-02-21T10:10:06;101885.0;;;10.63;100.0
37420;BME280;47344;52.374;4.816;2023-02-21T10:11:57;101886.0;;;10.74;100.0
37420;BME280;47344;52.374;4.816;2023-02-21T10:15:36;101885.0;;;10.87;100.0
37420;BME280;47344;52.374;4.816;2023-02-21T10:17:18;101889.0;;;10.85;100.0
37420;BME280;47344;52.374;4.816;2023-02-21T10:19:03;101886.0;;;10.83;100.0
37420;BME280;47344;52.374;4.816;2023-02-21T10:20:47;101888.0;;;10.75;100.0
37420;BME280;47344;52.374;4.816;2023-02-21T10:22:27;101886.0;;;10.78;100.0
37420;BME280;47344;52.374;4.816;2023-02-21T10:25:52;101882.0;;;10.81;100.0
37420;BME280;47344;52.374;4.816;2023-02-21T10:27:32;101885.0;;;10.85;100.0
37420;BME280;47344;52.374;4.816;2023-02-21T10:29:19;101883.0;;;10.94;100.0
37420;BME280;47344;52.374;4.816;2023-02-21T10:30:57;101882.0;;;11.01;100.0
37420;BME280;47344;52.374;4.816;2023-02-21T10:32:36;101882.0;;;11.14;100.0
37420;BME280;47344;52.374;4.816;2023-02-21T10:35:58;101882.0;;;11.15;100.0
37420;BME280;47344;52.374;4.816;2023-02-21T10:37:37;101882.0;;;11.17;100.0
37420;BME280;47344;52.374;4.816;2023-02-21T10:39:18;101885.0;;;11.26;100.0
37420;BME280;47344;52.374;4.816;2023-02-21T10:42:39;101886.0;;;11.13;100.0
37420;BME280;47344;52.374;4.816;2023-02-21T10:44:27;101886.0;;;11.13;100.0
37420;BME280;47344;52.374;4.816;2023-02-21T10:46:11;101887.0;;;11.2;100.0
37420;BME280;47344;52.374;4.816;2023-02-21T10:47:57;101886.0;;;11.21;100.0
37420;BME280;47344;52.374;4.816;2023-02-21T10:49:39;101887.0;;;11.2;100.0
37420;BME280;47344;52.374;4.816;2023-02-21T10:53:06;101884.0;;;11.39;100.0
37420;BME280;47344;52.374;4.816;2023-02-21T10:54:59;101877.0;;;11.34;100.0
37420;BME280;47344;52.374;4.816;2023-02-21T11:56:41;101862.0;;;10.6;100.0
37420;BME280;47344;52.374;4.816;2023-02-21T11:58:24;101861.0;;;10.71;100.0
37420;BME280;47344;52.374;4.816;2023-02-21T12:02:18;101860.0;;;10.7;100.0
37420;BME280;47344;52.374;4.816;2023-02-21T12:04:26;101859.0;;;10.63;100.0
37420;BME280;47344;52.374;4.816;2023-02-21T12:06:19;101859.0;;;10.66;100.0
37420;BME280;47344;52.374;4.816;2023-02-21T12:08:13;101858.0;;;10.66;100.0
37420;BME280;47344;52.374;4.816;2023-02-21T12:10:12;101862.0;;;10.68;100.0
37420;BME280;47344;52.374;4.816;2023-02-21T12:12:14;101855.0;;;10.69;100.0
37420;BME280;47344;52.374;4.816;2023-02-21T12:14:08;101853.0;;;10.71;100.0
37420;BME280;47344;52.374;4.816;2023-02-21T12:16:01;101855.0;;;10.75;100.0
37420;BME280;47344;52.374;4.816;2023-02-21T12:17:56;101851.0;;;10.87;100.0
37420;BME280;47344;52.374;4.816;2023-02-21T12:20:05;101853.0;;;10.69;100.0
37420;BME280;47344;52.374;4.816;2023-02-21T12:23:18;101853.0;;;10.52;100.0
37420;BME280;47344;52.374;4.816;2023-02-21T12:25:10;101852.0;;;10.57;100.0
37420;BME280;47344;52.374;4.816;2023-02-21T12:26:55;101845.0;;;10.68;100.0
37420;BME280;47344;52.374;4.816;2023-02-21T12:28:48;101848.0;;;10.56;100.0
37420;BME280;47344;52.374;4.816;2023-02-21T12:30:56;101847.0;;;10.27;100.0
37420;BME280;47344;52.374;4.816;2023-02-21T12:32:48;101844.0;;;10.25;100.0
37420;BME280;47344;52.374;4.816;2023-02-21T12:35:00;101846.0;;;10.27;100.0
37420;BME280;47344;52.374;4.816;2023-02-21T12:36:48;101844.0;;;10.37;100.0
37420;BME280;47344;52.374;4.816;2023-02-21T12:39:35;101846.0;;;10.44;100.0
37420;BME280;47344;52.374;4.816;2023-02-21T12:42:55;101842.0;;;10.32;100.0
37420;BME280;47344;52.374;4.816;2023-02-21T12:44:44;101834.0;;;10.15;100.0
37420;BME280;47344;52.374;4.816;2023-02-21T12:46:35;101838.0;;;10.24;100.0
37420;BME280;47344;52.374;4.816;2023-02-21T12:50:06;101836.0;;;10.31;100.0
37420;BME280;47344;52.374;4.816;2023-02-21T12:51:52;101833.0;;;10.47;100.0
37420;BME280;47344;52.374;4.816;2023-02-21T12:53:38;101838.0;;;10.41;100.0
37420;BME280;47344;52.374;4.816;2023-02-21T12:55:24;101832.0;;;10.23;100.0
37420;BME280;47344;52.374;4.816;2023-02-21T12:57:05;101835.0;;;10.16;100.0
37420;BME280;47344;52.374;4.816;2023-02-21T13:00:33;101835.0;;;10.19;100.0
37420;BME280;47344;52.374;4.816;2023-02-21T13:02:19;101836.0;;;10.22;100.0
37420;BME280;47344;52.374;4.816;2023-02-21T13:04:09;101833.0;;;10.21;100.0
37420;BME280;47344;52.374;4.816;2023-02-21T13:05:53;101830.0;;;10.19;100.0
37420;BME280;47344;52.374;4.816;2023-02-21T13:07:35;101837.0;;;10.21;100.0
37420;BME280;47344;52.374;4.816;2023-02-21T13:11:08;101837.0;;;10.19;100.0
37420;BME280;47344;52.374;4.816;2023-02-21T13:12:54;101836.0;;;10.19;100.0
37420;BME280;47344;52.374;4.816;2023-02-21T13:14:38;101835.0;;;10.01;100.0
37420;BME280;47344;52.374;4.816;2023-02-21T13:16:18;101835.0;;;10.1;100.0
37420;BME280;47344;52.374;4.816;2023-02-21T13:17:58;101834.0;;;10.17;100.0
37420;BME280;47344;52.374;4.816;2023-02-21T13:21:28;101824.0;;;10.17;100.0
37420;BME280;47344;52.374;4.816;2023-02-21T13:24:40;101821.0;;;10.28;100.0
37420;BME280;47344;52.374;4.816;2023-02-21T13:27:08;101817.0;;;10.35;100.0
37420;BME280;47344;52.374;4.816;2023-02-21T13:29:23;101820.0;;;10.16;100.0
37420;BME280;47344;52.374;4.816;2023-02-21T13:31:02;101822.0;;;10.23;100.0
37420;BME280;47344;52.374;4.816;2023-02-21T13:32:39;101817.0;;;10.24;100.0
37420;BME280;47344;52.374;4.816;2023-02-21T13:36:20;101808.0;;;10.06;100.0
37420;BME280;47344;52.374;4.816;2023-02-21T13:38:07;101806.0;;;9.96;100.0
37420;BME280;47344;52.374;4.816;2023-02-21T13:39:49;101808.0;;;9.96;100.0
37420;BME280;47344;52.374;4.816;2023-02-21T13:41:29;101802.0;;;10.0;100.0
37420;BME280;47344;52.374;4.816;2023-02-21T13:43:15;101805.0;;;10.07;100.0
37420;BME280;47344;52.374;4.816;2023-02-21T13:47:10;101805.0;;;10.15;100.0
37420;BME280;47344;52.374;4.816;2023-02-21T13:50:43;101803.0;;;10.09;100.0
37420;BME280;47344;52.374;4.816;2023-02-21T13:52:27;101801.0;;;10.18;100.0
37420;BME280;47344;52.374;4.816;2023-02-21T13:56:14;101798.0;;;10.16;100.0
37420;BME280;47344;52.374;4.816;2023-02-21T13:58:34;101799.0;;;10.17;100.0
37420;BME280;47344;52.374;4.816;2023-02-21T14:00:45;101798.0;;;10.29;100.0
37420;BME280;47344;52.374;4.816;2023-02-21T14:02:59;101799.0;;;10.11;100.0
37420;BME280;47344;52.374;4.816;2023-02-21T14:04:58;101794.0;;;10.19;100.0
37420;BME280;47344;52.374;4.816;2023-02-21T14:06:54;101791.0;;;10.36;100.0
37420;BME280;47344;52.374;4.816;2023-02-21T14:08:35;101790.0;;;10.41;100.0
37420;BME280;47344;52.374;4.816;2023-02-21T14:10:24;101790.0;;;10.36;100.0
37420;BME280;47344;52.374;4.816;2023-02-21T14:13:47;101790.0;;;10.23;100.0
37420;BME280;47344;52.374;4.816;2023-02-21T14:15:37;101792.0;;;10.23;100.0
37420;BME280;47344;52.374;4.816;2023-02-21T14:17:15;101786.0;;;10.24;100.0
37420;BME280;47344;52.374;4.816;2023-02-21T14:19:06;101786.0;;;10.37;100.0
37420;BME280;47344;52.374;4.816;2023-02-21T14:20:46;101783.0;;;10.38;100.0
37420;BME280;47344;52.374;4.816;2023-02-21T14:24:09;101783.0;;;10.38;100.0
37420;BME280;47344;52.374;4.816;2023-02-21T14:25:55;101778.0;;;10.31;100.0
37420;BME280;47344;52.374;4.816;2023-02-21T14:27:36;101772.0;;;10.48;100.0
37420;BME280;47344;52.374;4.816;2023-02-21T14:29:28;101775.0;;;10.45;100.0
37420;BME280;47344;52.374;4.816;2023-02-21T14:31:10;101774.0;;;10.51;100.0
37420;BME280;47344;52.374;4.816;2023-02-21T14:34:32;101773.0;;;10.71;100.0
37420;BME280;47344;52.374;4.816;2023-02-21T14:36:15;101774.0;;;10.53;100.0
37420;BME280;47344;52.374;4.816;2023-02-21T14:37:57;101772.0;;;10.56;100.0
37420;BME280;47344;52.374;4.816;2023-02-21T14:39:39;101767.0;;;10.56;100.0
37420;BME280;47344;52.374;4.816;2023-02-21T14:43:35;101767.0;;;10.57;100.0